»·PEaware :: UAL435 KSNA-KLAS

UAL435 :: KSNA-KLAS

FLIGHT INFORMATION

Flight Status: Arrived
Operator:
United Airlines
More flights by this operator :: More flights under this callsign
Pilot: Jim B. (1646)
Aircraft: BOEING 737-800
(B738)
More flights by this aircraft type
Origin: KSNA John Wayne-Orange Co
United States
Destination: KLAS McCarran Intl
United States
More flights between these airports :: More routes between these airports
Route: MUSEL6 DAG KEPEC3 DAG LAS
File this flight plan on PilotEdge
Remarks: / V /
Altitude:
(Current/Filed)
31,000ft
Speed:
(Current/Filed)
430kts
Departed: 06-Mar-13 12:09 PM
Arrived: 06-Mar-13 01:12 PM
Distance/Time
Traveled:
197nm/1:03
Distance/Time
To Go:
Arrived

Flight Plot

Page will automatically refresh every two minutes.


Map Options




Map Legend


Flown Route
Filed Route
Departure Airport
Arrival Airport
Navaid (VOR, NDB)
Fix

Horizontal Profiles

Position Reports

Time Latitude Longitude Heading Altitude Ground
Speed
06-Mar-13 11:31 33.678443 -117.862502 116 63ft 0kts
06-Mar-13 11:32 33.678441 -117.862499 116 63ft 0kts
06-Mar-13 11:33 33.678440 -117.862496 116 63ft 0kts
06-Mar-13 11:34 33.678439 -117.862493 116 63ft 0kts
06-Mar-13 11:35 33.678437 -117.862490 116 64ft 0kts
06-Mar-13 11:36 33.678436 -117.862486 116 64ft 0kts
06-Mar-13 11:37 33.678434 -117.862482 116 64ft 0kts
06-Mar-13 11:38 33.678432 -117.862478 116 64ft 0kts
06-Mar-13 11:39 33.678431 -117.862474 116 64ft 0kts
06-Mar-13 11:40 33.678429 -117.862470 116 64ft 0kts
06-Mar-13 11:41 33.678427 -117.862465 116 64ft 0kts
06-Mar-13 11:42 33.678426 -117.862461 116 64ft 0kts
06-Mar-13 11:43 33.678424 -117.862457 116 64ft 0kts
06-Mar-13 11:44 33.678422 -117.862453 116 64ft 0kts
06-Mar-13 11:45 33.678421 -117.862449 116 64ft 0kts
06-Mar-13 11:46 33.678419 -117.862445 116 64ft 0kts
06-Mar-13 11:47 33.678417 -117.862440 116 64ft 0kts
06-Mar-13 11:48 33.678415 -117.862435 116 64ft 0kts
06-Mar-13 11:49 33.678413 -117.862431 116 64ft 0kts
06-Mar-13 11:50 33.678411 -117.862426 116 64ft 0kts
06-Mar-13 11:51 33.678409 -117.862422 116 64ft 0kts
06-Mar-13 11:52 33.678407 -117.862417 116 64ft 0kts
06-Mar-13 11:53 33.678406 -117.862413 116 64ft 0kts
06-Mar-13 11:54 33.678404 -117.862408 116 64ft 0kts
06-Mar-13 11:55 33.678402 -117.862404 116 64ft 0kts
06-Mar-13 11:56 33.678399 -117.862397 116 64ft 0kts
06-Mar-13 11:57 33.678394 -117.862386 116 64ft 0kts
06-Mar-13 11:58 33.678459 -117.862542 116 64ft 0kts
06-Mar-13 11:59 33.678457 -117.862537 116 64ft 0kts
06-Mar-13 12:00 33.678456 -117.862535 116 64ft 0kts
06-Mar-13 12:01 33.678761 -117.863276 116 64ft 2kts
06-Mar-13 12:02 33.678824 -117.863154 44 64ft 0kts
06-Mar-13 12:03 33.679308 -117.862752 13 64ft 9kts
06-Mar-13 12:04 33.680572 -117.863037 298 64ft 0kts
06-Mar-13 12:05 33.680578 -117.863049 298 64ft 0kts
06-Mar-13 12:06 33.680584 -117.863061 298 64ft 0kts
06-Mar-13 12:07 33.680589 -117.863073 298 64ft 0kts
06-Mar-13 12:08 33.681524 -117.865174 297 64ft 0kts
06-Mar-13 12:09 33.677770 -117.867529 208 64ft 83kts
06-Mar-13 12:09 33.647072 -117.887496 204 1322ft 174kts
06-Mar-13 12:10 33.606731 -117.892856 180 3119ft 189kts
06-Mar-13 12:12 33.545400 -117.899134 207 5541ft 193kts
06-Mar-13 12:13 33.557681 -117.955064 323 5051ft 239kts
06-Mar-13 12:13 33.602622 -117.988311 323 7588ft 224kts
06-Mar-13 12:14 33.657077 -118.028150 323 11126ft 228kts
06-Mar-13 12:15 33.723057 -118.052728 342 12616ft 272kts
06-Mar-13 12:16 33.806648 -118.060435 349 12996ft 331kts
06-Mar-13 12:18 33.908552 -118.015095 56 14113ft 365kts
06-Mar-13 12:18 33.941644 -117.930016 45 16800ft 315kts
06-Mar-13 12:19 34.003000 -117.845790 43 17901ft 341kts
06-Mar-13 12:20 34.078821 -117.773808 31 18551ft 367kts
06-Mar-13 12:21 34.154469 -117.684617 44 19007ft 392kts
06-Mar-13 12:22 34.228900 -117.584257 44 19134ft 408kts
06-Mar-13 12:23 34.307455 -117.477843 45 19392ft 452kts
06-Mar-13 12:24 34.392518 -117.362062 44 21533ft 471kts
06-Mar-13 12:25 34.480103 -117.242392 44 24185ft 474kts
06-Mar-13 12:26 34.562555 -117.130114 43 26909ft 463kts
06-Mar-13 12:27 34.645472 -117.016499 42 29854ft 439kts
06-Mar-13 12:28 34.728542 -116.902217 43 30872ft 461kts
06-Mar-13 12:29 34.816008 -116.781742 44 31015ft 472kts
06-Mar-13 12:30 34.901397 -116.663191 44 31001ft 470kts
06-Mar-13 12:31 34.987777 -116.545241 40 30998ft 459kts
06-Mar-13 12:32 35.078263 -116.432540 40 29675ft 474kts
06-Mar-13 12:33 35.172007 -116.315271 40 29021ft 499kts
06-Mar-13 12:34 35.262742 -116.201783 40 26154ft 500kts
06-Mar-13 12:35 35.358691 -116.081368 41 23281ft 493kts
06-Mar-13 12:36 35.453233 -115.962124 41 19659ft 474kts
06-Mar-13 12:37 35.542171 -115.849788 42 15965ft 446kts
06-Mar-13 12:38 35.624914 -115.744476 43 13473ft 393kts
06-Mar-13 12:39 35.694020 -115.656415 43 13047ft 335kts
06-Mar-13 12:40 35.762891 -115.580721 15 12971ft 328kts
06-Mar-13 12:41 35.851082 -115.569684 354 12986ft 315kts
06-Mar-13 12:42 35.938955 -115.565291 357 12986ft 317kts
06-Mar-13 12:43 35.999842 -115.492520 80 12492ft 330kts
06-Mar-13 12:44 36.026318 -115.385184 77 11056ft 319kts
06-Mar-13 12:45 36.024517 -115.280208 98 10078ft 298kts
06-Mar-13 12:46 36.017189 -115.182166 97 8839ft 278kts
06-Mar-13 12:47 36.014422 -115.088067 69 8018ft 275kts
06-Mar-13 12:48 36.077356 -115.038171 22 7451ft 278kts
06-Mar-13 12:49 36.147984 -114.999379 22 5690ft 282kts
06-Mar-13 12:50 36.208958 -115.013517 278 5081ft 238kts
06-Mar-13 12:51 36.206455 -115.095267 262 5095ft 237kts
06-Mar-13 12:52 36.187342 -115.166283 186 3992ft 251kts
06-Mar-13 12:53 36.137324 -115.128074 154 3726ft 185kts
06-Mar-13 12:54 36.100395 -115.155177 207 2436ft 164kts
06-Mar-13 12:55 36.061107 -115.179997 190 3568ft 159kts
06-Mar-13 12:56 36.042291 -115.117507 95 5228ft 226kts
06-Mar-13 12:57 36.044739 -115.049969 88 4287ft 168kts
06-Mar-13 12:58 36.076183 -115.037058 273 2950ft 157kts
06-Mar-13 12:59 36.073628 -115.083291 259 2762ft 148kts
06-Mar-13 13:00 36.059792 -115.129247 200 4724ft 176kts
06-Mar-13 13:10 36.114582 -115.144292 201 2518ft 118kts
06-Mar-13 13:11 36.090217 -115.158349 205 2189ft 10kts
06-Mar-13 13:12 36.087675 -115.158826 110 2189ft 0kts
06-Mar-13 13:13 36.086894 -115.156399 113 2189ft 14kts
06-Mar-13 13:14 36.085817 -115.154670 149 2189ft 4kts
06-Mar-13 13:15 36.085764 -115.154631 149 2189ft 0kts
06-Mar-13 13:16 36.085761 -115.154629 149 2189ft 0kts
06-Mar-13 13:17 36.085760 -115.154628 149 2189ft 0kts
06-Mar-13 13:18 36.085760 -115.154628 149 2189ft 0kts
06-Mar-13 13:19 36.085760 -115.154628 149 2189ft 0kts
06-Mar-13 13:20 36.085760 -115.154628 149 2189ft 0kts
06-Mar-13 13:21 36.085760 -115.154628 149 2189ft 0kts
06-Mar-13 13:22 36.085760 -115.154628 149 2189ft 0kts
06-Mar-13 13:23 36.085760 -115.154628 149 2189ft 0kts
06-Mar-13 13:25 36.085760 -115.154628 149 2189ft 0kts
06-Mar-13 13:26 36.085760 -115.154628 149 2189ft 0kts
06-Mar-13 13:27 36.085760 -115.154628 149 2189ft 0kts

Navigation Log

Ident Type
Flight plan parsing failed, navigation log unavailable